sensor_id;sensor_type;location;lat;lon;timestamp;P1;durP1;ratioP1;P2;durP2;ratioP2
60002;SDS011;46322;52.018;8.702;2023-03-01T00:02:21;226.53;;;218.63;;
60002;SDS011;46322;52.018;8.702;2023-03-01T00:17:22;47.53;;;45.42;;
60002;SDS011;46322;52.018;8.702;2023-03-01T00:22:22;45.13;;;43.03;;
60002;SDS011;46322;52.018;8.702;2023-03-01T00:27:24;45.30;;;43.17;;
60002;SDS011;46322;52.018;8.702;2023-03-01T00:32:24;46.33;;;44.13;;
60002;SDS011;46322;52.018;8.702;2023-03-01T00:37:24;48.53;;;46.23;;
60002;SDS011;46322;52.018;8.702;2023-03-01T00:42:25;44.30;;;42.20;;
60002;SDS011;46322;52.018;8.702;2023-03-01T00:47:25;48.90;;;46.60;;
60002;SDS011;46322;52.018;8.702;2023-03-01T00:52:25;48.63;;;46.33;;
60002;SDS011;46322;52.018;8.702;2023-03-01T00:57:26;46.40;;;44.20;;
60002;SDS011;46322;52.018;8.702;2023-03-01T01:02:26;50.67;;;48.27;;
60002;SDS011;46322;52.018;8.702;2023-03-01T01:07:26;45.80;;;43.60;;
60002;SDS011;46322;52.018;8.702;2023-03-01T01:12:27;46.15;;;43.95;;
60002;SDS011;46322;52.018;8.702;2023-03-01T01:17:27;47.15;;;44.95;;
60002;SDS011;46322;52.018;8.702;2023-03-01T01:22:27;49.77;;;47.47;;
60002;SDS011;46322;52.018;8.702;2023-03-01T01:27:29;46.57;;;44.37;;
60002;SDS011;46322;52.018;8.702;2023-03-01T01:32:30;50.37;;;47.97;;
60002;SDS011;46322;52.018;8.702;2023-03-01T01:37:30;46.50;;;44.30;;
60002;SDS011;46322;52.018;8.702;2023-03-01T01:42:30;47.47;;;45.27;;
60002;SDS011;46322;52.018;8.702;2023-03-01T01:47:30;46.23;;;44.03;;
60002;SDS011;46322;52.018;8.702;2023-03-01T01:52:31;46.03;;;43.83;;
60002;SDS011;46322;52.018;8.702;2023-03-01T01:57:39;47.13;;;44.93;;
60002;SDS011;46322;52.018;8.702;2023-03-01T02:02:43;47.67;;;45.47;;
60002;SDS011;46322;52.018;8.702;2023-03-01T02:07:46;44.87;;;42.77;;
60002;SDS011;46322;52.018;8.702;2023-03-01T02:12:48;93.73;;;89.73;;
60002;SDS011;46322;52.018;8.702;2023-03-01T02:17:49;232.13;;;224.03;;
60002;SDS011;46322;52.018;8.702;2023-03-01T02:22:50;181.00;;;174.50;;
60002;SDS011;46322;52.018;8.702;2023-03-01T02:27:54;57.37;;;54.70;;
60002;SDS011;46322;52.018;8.702;2023-03-01T02:32:56;73.50;;;70.27;;
60002;SDS011;46322;52.018;8.702;2023-03-01T02:37:58;53.17;;;50.67;;
60002;SDS011;46322;52.018;8.702;2023-03-01T02:43:00;71.80;;;68.53;;
60002;SDS011;46322;52.018;8.702;2023-03-01T02:48:01;80.30;;;76.77;;
60002;SDS011;46322;52.018;8.702;2023-03-01T02:53:06;73.43;;;70.13;;
60002;SDS011;46322;52.018;8.702;2023-03-01T02:58:12;70.97;;;67.77;;
60002;SDS011;46322;52.018;8.702;2023-03-01T03:03:13;56.27;;;53.67;;
60002;SDS011;46322;52.018;8.702;2023-03-01T03:08:23;84.93;;;81.20;;
60002;SDS011;46322;52.018;8.702;2023-03-01T03:13:23;218.47;;;210.67;;
60002;SDS011;46322;52.018;8.702;2023-03-01T03:18:24;226.57;;;218.60;;
60002;SDS011;46322;52.018;8.702;2023-03-01T03:23:24;234.50;;;226.40;;
60002;SDS011;46322;52.018;8.702;2023-03-01T03:28:25;151.20;;;145.47;;
60002;SDS011;46322;52.018;8.702;2023-03-01T03:33:25;45.90;;;43.73;;
60002;SDS011;46322;52.018;8.702;2023-03-01T03:38:25;46.50;;;44.30;;
60002;SDS011;46322;52.018;8.702;2023-03-01T03:43:26;44.37;;;42.27;;
60002;SDS011;46322;52.018;8.702;2023-03-01T03:48:27;48.17;;;45.87;;
60002;SDS011;46322;52.018;8.702;2023-03-01T03:53:27;45.47;;;43.33;;
60002;SDS011;46322;52.018;8.702;2023-03-01T03:58:28;46.23;;;44.03;;
60002;SDS011;46322;52.018;8.702;2023-03-01T04:03:29;45.90;;;43.73;;
60002;SDS011;46322;52.018;8.702;2023-03-01T04:08:30;48.63;;;46.33;;
60002;SDS011;46322;52.018;8.702;2023-03-01T04:13:31;41.73;;;39.73;;
60002;SDS011;46322;52.018;8.702;2023-03-01T04:18:31;10.07;;;9.55;;
60002;SDS011;46322;52.018;8.702;2023-03-01T04:23:32;7.60;;;7.20;;
60002;SDS011;46322;52.018;8.702;2023-03-01T04:28:34;8.30;;;7.80;;
60002;SDS011;46322;52.018;8.702;2023-03-01T04:38:49;8.23;;;7.72;;
60002;SDS011;46322;52.018;8.702;2023-03-01T04:43:50;27.93;;;12.33;;
60002;SDS011;46322;52.018;8.702;2023-03-01T04:48:50;13.38;;;5.00;;
60002;SDS011;46322;52.018;8.702;2023-03-01T04:53:50;34.13;;;17.47;;
60002;SDS011;46322;52.018;8.702;2023-03-01T04:58:52;38.70;;;21.07;;
60002;SDS011;46322;52.018;8.702;2023-03-01T05:03:53;27.73;;;12.98;;
60002;SDS011;46322;52.018;8.702;2023-03-01T05:08:53;22.83;;;10.23;;
60002;SDS011;46322;52.018;8.702;2023-03-01T05:13:53;57.22;;;38.08;;
60002;SDS011;46322;52.018;8.702;2023-03-01T05:18:54;20.08;;;8.50;;
60002;SDS011;46322;52.018;8.702;2023-03-01T05:23:54;20.20;;;8.97;;
60002;SDS011;46322;52.018;8.702;2023-03-01T05:28:55;29.23;;;13.80;;
60002;SDS011;46322;52.018;8.702;2023-03-01T05:33:56;17.38;;;6.90;;
60002;SDS011;46322;52.018;8.702;2023-03-01T05:38:57;14.87;;;5.87;;
60002;SDS011;46322;52.018;8.702;2023-03-01T05:43:57;19.25;;;10.20;;
60002;SDS011;46322;52.018;8.702;2023-03-01T05:48:57;28.38;;;11.20;;
60002;SDS011;46322;52.018;8.702;2023-03-01T05:53:57;144.23;;;97.82;;
60002;SDS011;46322;52.018;8.702;2023-03-01T05:58:58;159.90;;;104.80;;
60002;SDS011;46322;52.018;8.702;2023-03-01T06:03:58;171.90;;;111.57;;
60002;SDS011;46322;52.018;8.702;2023-03-01T06:08:58;279.33;;;138.00;;
60002;SDS011;46322;52.018;8.702;2023-03-01T06:13:58;464.02;;;115.30;;
60002;SDS011;46322;52.018;8.702;2023-03-01T06:18:59;474.48;;;88.68;;
60002;SDS011;46322;52.018;8.702;2023-03-01T06:23:59;487.73;;;41.67;;
60002;SDS011;46322;52.018;8.702;2023-03-01T06:28:59;474.13;;;43.30;;
60002;SDS011;46322;52.018;8.702;2023-03-01T06:33:59;489.25;;;42.63;;
60002;SDS011;46322;52.018;8.702;2023-03-01T06:39:00;477.07;;;43.03;;
60002;SDS011;46322;52.018;8.702;2023-03-01T06:44:00;483.73;;;38.47;;
60002;SDS011;46322;52.018;8.702;2023-03-01T06:49:00;481.02;;;39.33;;
60002;SDS011;46322;52.018;8.702;2023-03-01T06:54:01;489.00;;;43.35;;
60002;SDS011;46322;52.018;8.702;2023-03-01T06:59:01;478.50;;;42.58;;
60002;SDS011;46322;52.018;8.702;2023-03-01T07:04:02;490.57;;;43.50;;
60002;SDS011;46322;52.018;8.702;2023-03-01T07:09:02;475.23;;;42.30;;
60002;SDS011;46322;52.018;8.702;2023-03-01T07:14:02;484.53;;;42.90;;
60002;SDS011;46322;52.018;8.702;2023-03-01T07:19:02;486.17;;;46.17;;
60002;SDS011;46322;52.018;8.702;2023-03-01T07:24:03;489.88;;;41.25;;
60002;SDS011;46322;52.018;8.702;2023-03-01T07:29:05;483.37;;;43.90;;
60002;SDS011;46322;52.018;8.702;2023-03-01T07:34:06;478.73;;;58.67;;
60002;SDS011;46322;52.018;8.702;2023-03-01T07:39:06;479.58;;;80.63;;
60002;SDS011;46322;52.018;8.702;2023-03-01T07:44:07;490.05;;;76.93;;
60002;SDS011;46322;52.018;8.702;2023-03-01T07:49:07;479.50;;;71.87;;
60002;SDS011;46322;52.018;8.702;2023-03-01T07:54:07;488.45;;;47.75;;
60002;SDS011;46322;52.018;8.702;2023-03-01T07:59:08;491.48;;;39.85;;
60002;SDS011;46322;52.018;8.702;2023-03-01T08:04:08;495.38;;;39.75;;
60002;SDS011;46322;52.018;8.702;2023-03-01T08:09:08;487.83;;;57.13;;
60002;SDS011;46322;52.018;8.702;2023-03-01T08:14:08;487.17;;;56.60;;
60002;SDS011;46322;52.018;8.702;2023-03-01T08:19:10;499.17;;;59.38;;
60002;SDS011;46322;52.018;8.702;2023-03-01T08:24:11;497.17;;;100.68;;
60002;SDS011;46322;52.018;8.702;2023-03-01T08:29:11;502.35;;;60.58;;
60002;SDS011;46322;52.018;8.702;2023-03-01T08:34:13;451.83;;;113.07;;
60002;SDS011;46322;52.018;8.702;2023-03-01T08:39:16;371.33;;;126.00;;
60002;SDS011;46322;52.018;8.702;2023-03-01T08:54:19;422.85;;;120.80;;
60002;SDS011;46322;52.018;8.702;2023-03-01T08:59:20;433.05;;;113.28;;
60002;SDS011;46322;52.018;8.702;2023-03-01T09:04:20;376.67;;;119.50;;
60002;SDS011;46322;52.018;8.702;2023-03-01T09:09:21;413.77;;;114.50;;
60002;SDS011;46322;52.018;8.702;2023-03-01T09:14:21;470.30;;;108.82;;
60002;SDS011;46322;52.018;8.702;2023-03-01T09:19:22;458.30;;;109.43;;
60002;SDS011;46322;52.018;8.702;2023-03-01T09:24:23;460.17;;;107.63;;
60002;SDS011;46322;52.018;8.702;2023-03-01T09:29:24;461.65;;;110.25;;
60002;SDS011;46322;52.018;8.702;2023-03-01T09:34:24;465.23;;;110.25;;
60002;SDS011;46322;52.018;8.702;2023-03-01T09:39:25;461.27;;;108.63;;
60002;SDS011;46322;52.018;8.702;2023-03-01T09:54:30;463.73;;;112.70;;
60002;SDS011;46322;52.018;8.702;2023-03-01T10:10:46;18.87;;;9.80;;
60002;SDS011;46322;52.018;8.702;2023-03-01T10:15:53;18.95;;;8.43;;
60002;SDS011;46322;52.018;8.702;2023-03-01T10:21:00;15.82;;;6.63;;
60002;SDS011;46322;52.018;8.702;2023-03-01T10:31:24;13.10;;;5.80;;
60002;SDS011;46322;52.018;8.702;2023-03-01T10:36:28;11.00;;;4.97;;
60002;SDS011;46322;52.018;8.702;2023-03-01T10:41:32;13.55;;;4.82;;
60002;SDS011;46322;52.018;8.702;2023-03-01T10:46:34;13.82;;;4.70;;
60002;SDS011;46322;52.018;8.702;2023-03-01T10:51:35;8.67;;;3.23;;
60002;SDS011;46322;52.018;8.702;2023-03-01T10:56:51;10.30;;;5.20;;
60002;SDS011;46322;52.018;8.702;2023-03-01T11:07:15;10.27;;;4.60;;
60002;SDS011;46322;52.018;8.702;2023-03-01T11:12:15;11.47;;;5.70;;
60002;SDS011;46322;52.018;8.702;2023-03-01T11:22:25;8.85;;;3.83;;
60002;SDS011;46322;52.018;8.702;2023-03-01T11:27:26;8.80;;;3.70;;
60002;SDS011;46322;52.018;8.702;2023-03-01T11:32:33;11.65;;;4.05;;
60002;SDS011;46322;52.018;8.702;2023-03-01T11:37:51;9.47;;;2.97;;
60002;SDS011;46322;52.018;8.702;2023-03-01T11:48:22;8.97;;;4.00;;
60002;SDS011;46322;52.018;8.702;2023-03-01T11:53:50;7.28;;;2.92;;
60002;SDS011;46322;52.018;8.702;2023-03-01T11:59:04;7.28;;;3.13;;
60002;SDS011;46322;52.018;8.702;2023-03-01T12:30:51;7.57;;;3.47;;
60002;SDS011;46322;52.018;8.702;2023-03-01T12:47:13;7.67;;;3.23;;
60002;SDS011;46322;52.018;8.702;2023-03-01T12:57:53;7.10;;;3.63;;
60002;SDS011;46322;52.018;8.702;2023-03-01T13:08:27;6.33;;;2.73;;
60002;SDS011;46322;52.018;8.702;2023-03-01T13:13:36;7.38;;;3.88;;
60002;SDS011;46322;52.018;8.702;2023-03-01T13:18:36;6.38;;;2.97;;
60002;SDS011;46322;52.018;8.702;2023-03-01T13:23:37;7.90;;;2.92;;
60002;SDS011;46322;52.018;8.702;2023-03-01T13:33:48;6.10;;;2.67;;
60002;SDS011;46322;52.018;8.702;2023-03-01T13:43:55;6.10;;;3.15;;
60002;SDS011;46322;52.018;8.702;2023-03-01T13:48:56;6.75;;;2.70;;
60002;SDS011;46322;52.018;8.702;2023-03-01T13:53:57;5.50;;;2.77;;
60002;SDS011;46322;52.018;8.702;2023-03-01T13:59:02;6.85;;;3.45;;
60002;SDS011;46322;52.018;8.702;2023-03-01T14:04:18;6.30;;;3.13;;
60002;SDS011;46322;52.018;8.702;2023-03-01T14:09:22;7.07;;;3.53;;
60002;SDS011;46322;52.018;8.702;2023-03-01T14:19:56;6.78;;;3.03;;
60002;SDS011;46322;52.018;8.702;2023-03-01T16:10:58;6.60;;;3.20;;
60002;SDS011;46322;52.018;8.702;2023-03-01T16:15:59;7.37;;;3.10;;
60002;SDS011;46322;52.018;8.702;2023-03-01T16:20:59;7.23;;;3.20;;
60002;SDS011;46322;52.018;8.702;2023-03-01T16:26:01;8.10;;;3.45;;
60002;SDS011;46322;52.018;8.702;2023-03-01T16:31:03;8.13;;;2.92;;
60002;SDS011;46322;52.018;8.702;2023-03-01T16:36:08;6.17;;;2.97;;
60002;SDS011;46322;52.018;8.702;2023-03-01T16:46:15;9.63;;;3.13;;
60002;SDS011;46322;52.018;8.702;2023-03-01T16:51:17;8.20;;;3.40;;
60002;SDS011;46322;52.018;8.702;2023-03-01T17:11:20;7.32;;;3.05;;
60002;SDS011;46322;52.018;8.702;2023-03-01T17:16:27;7.43;;;2.80;;
60002;SDS011;46322;52.018;8.702;2023-03-01T17:21:27;8.40;;;3.27;;
60002;SDS011;46322;52.018;8.702;2023-03-01T17:26:28;17.07;;;5.03;;
60002;SDS011;46322;52.018;8.702;2023-03-01T17:31:29;20.08;;;7.30;;
60002;SDS011;46322;52.018;8.702;2023-03-01T17:36:30;12.10;;;4.53;;
60002;SDS011;46322;52.018;8.702;2023-03-01T17:41:38;11.50;;;4.25;;
60002;SDS011;46322;52.018;8.702;2023-03-01T17:46:38;11.00;;;3.60;;
60002;SDS011;46322;52.018;8.702;2023-03-01T17:51:38;9.70;;;3.40;;
60002;SDS011;46322;52.018;8.702;2023-03-01T17:56:39;10.70;;;4.87;;
60002;SDS011;46322;52.018;8.702;2023-03-01T18:01:40;7.93;;;3.47;;
60002;SDS011;46322;52.018;8.702;2023-03-01T18:06:41;7.60;;;3.13;;
60002;SDS011;46322;52.018;8.702;2023-03-01T18:11:41;8.80;;;3.25;;
60002;SDS011;46322;52.018;8.702;2023-03-01T18:16:41;8.68;;;3.40;;
60002;SDS011;46322;52.018;8.702;2023-03-01T18:21:41;8.20;;;2.85;;
60002;SDS011;46322;52.018;8.702;2023-03-01T18:26:42;7.88;;;3.33;;
60002;SDS011;46322;52.018;8.702;2023-03-01T18:31:42;9.10;;;3.58;;
60002;SDS011;46322;52.018;8.702;2023-03-01T18:36:42;12.37;;;4.53;;
60002;SDS011;46322;52.018;8.702;2023-03-01T18:41:42;14.90;;;4.60;;
60002;SDS011;46322;52.018;8.702;2023-03-01T18:46:43;11.95;;;4.50;;
60002;SDS011;46322;52.018;8.702;2023-03-01T18:56:44;11.27;;;3.50;;
60002;SDS011;46322;52.018;8.702;2023-03-01T19:01:44;8.63;;;2.75;;
60002;SDS011;46322;52.018;8.702;2023-03-01T19:06:45;7.88;;;2.80;;
60002;SDS011;46322;52.018;8.702;2023-03-01T19:11:45;8.30;;;3.38;;
60002;SDS011;46322;52.018;8.702;2023-03-01T19:16:45;7.88;;;3.15;;
60002;SDS011;46322;52.018;8.702;2023-03-01T19:21:45;9.13;;;3.80;;
60002;SDS011;46322;52.018;8.702;2023-03-01T19:26:46;9.90;;;3.33;;
60002;SDS011;46322;52.018;8.702;2023-03-01T19:31:46;9.27;;;4.18;;
60002;SDS011;46322;52.018;8.702;2023-03-01T19:41:46;7.15;;;3.55;;
60002;SDS011;46322;52.018;8.702;2023-03-01T19:46:47;9.82;;;3.95;;
60002;SDS011;46322;52.018;8.702;2023-03-01T19:51:47;10.27;;;3.47;;
60002;SDS011;46322;52.018;8.702;2023-03-01T19:56:48;11.73;;;4.67;;
60002;SDS011;46322;52.018;8.702;2023-03-01T20:01:50;14.93;;;6.28;;
60002;SDS011;46322;52.018;8.702;2023-03-01T20:06:51;10.97;;;4.53;;
60002;SDS011;46322;52.018;8.702;2023-03-01T20:11:51;14.65;;;6.05;;
60002;SDS011;46322;52.018;8.702;2023-03-01T20:16:51;10.02;;;4.20;;
60002;SDS011;46322;52.018;8.702;2023-03-01T20:21:51;10.50;;;4.13;;
60002;SDS011;46322;52.018;8.702;2023-03-01T20:26:52;10.98;;;4.70;;
60002;SDS011;46322;52.018;8.702;2023-03-01T20:31:52;8.88;;;3.45;;
60002;SDS011;46322;52.018;8.702;2023-03-01T20:36:52;9.05;;;3.47;;
60002;SDS011;46322;52.018;8.702;2023-03-01T20:41:52;9.77;;;3.67;;
60002;SDS011;46322;52.018;8.702;2023-03-01T20:46:53;11.57;;;4.50;;
60002;SDS011;46322;52.018;8.702;2023-03-01T20:51:53;20.30;;;8.68;;
60002;SDS011;46322;52.018;8.702;2023-03-01T21:01:53;11.57;;;4.55;;
60002;SDS011;46322;52.018;8.702;2023-03-01T21:06:54;12.07;;;4.65;;
60002;SDS011;46322;52.018;8.702;2023-03-01T21:11:55;11.70;;;4.72;;
60002;SDS011;46322;52.018;8.702;2023-03-01T21:16:55;13.03;;;5.20;;
60002;SDS011;46322;52.018;8.702;2023-03-01T21:21:55;11.20;;;5.00;;
60002;SDS011;46322;52.018;8.702;2023-03-01T21:26:56;11.13;;;4.50;;
60002;SDS011;46322;52.018;8.702;2023-03-01T21:31:56;12.37;;;4.63;;
60002;SDS011;46322;52.018;8.702;2023-03-01T21:36:56;15.77;;;5.43;;
60002;SDS011;46322;52.018;8.702;2023-03-01T21:41:57;13.05;;;4.80;;
60002;SDS011;46322;52.018;8.702;2023-03-01T21:46:58;15.98;;;5.97;;
60002;SDS011;46322;52.018;8.702;2023-03-01T21:51:59;12.25;;;4.70;;
60002;SDS011;46322;52.018;8.702;2023-03-01T21:56:59;11.50;;;4.90;;
60002;SDS011;46322;52.018;8.702;2023-03-01T22:01:59;12.53;;;5.40;;
60002;SDS011;46322;52.018;8.702;2023-03-01T22:07:06;14.13;;;5.03;;
60002;SDS011;46322;52.018;8.702;2023-03-01T22:12:06;13.00;;;5.25;;
60002;SDS011;46322;52.018;8.702;2023-03-01T22:17:06;12.00;;;5.20;;
60002;SDS011;46322;52.018;8.702;2023-03-01T22:22:07;13.77;;;6.10;;
60002;SDS011;46322;52.018;8.702;2023-03-01T22:27:07;15.25;;;7.10;;
60002;SDS011;46322;52.018;8.702;2023-03-01T22:32:07;15.77;;;6.53;;
60002;SDS011;46322;52.018;8.702;2023-03-01T22:37:08;16.25;;;6.53;;
60002;SDS011;46322;52.018;8.702;2023-03-01T22:42:08;15.95;;;6.75;;
60002;SDS011;46322;52.018;8.702;2023-03-01T22:47:08;15.02;;;6.55;;
60002;SDS011;46322;52.018;8.702;2023-03-01T22:52:08;16.98;;;6.57;;
60002;SDS011;46322;52.018;8.702;2023-03-01T22:57:09;42.08;;;17.65;;
60002;SDS011;46322;52.018;8.702;2023-03-01T23:02:09;23.00;;;9.03;;
60002;SDS011;46322;52.018;8.702;2023-03-01T23:07:10;13.98;;;5.90;;
60002;SDS011;46322;52.018;8.702;2023-03-01T23:12:10;16.38;;;6.70;;
60002;SDS011;46322;52.018;8.702;2023-03-01T23:17:10;14.60;;;6.00;;
60002;SDS011;46322;52.018;8.702;2023-03-01T23:22:10;17.08;;;6.47;;
60002;SDS011;46322;52.018;8.702;2023-03-01T23:27:11;14.43;;;6.10;;
60002;SDS011;46322;52.018;8.702;2023-03-01T23:32:11;16.83;;;6.40;;
60002;SDS011;46322;52.018;8.702;2023-03-01T23:37:12;14.03;;;5.93;;
60002;SDS011;46322;52.018;8.702;2023-03-01T23:42:12;15.77;;;6.20;;
60002;SDS011;46322;52.018;8.702;2023-03-01T23:47:12;13.95;;;5.68;;
60002;SDS011;46322;52.018;8.702;2023-03-01T23:52:13;11.70;;;4.60;;
60002;SDS011;46322;52.018;8.702;2023-03-01T23:57:13;13.90;;;4.80;;
